ASA7005 PAKT-KSEA
Flight info
| Callsign | ASA7005 |
|---|---|
| Flight time | 1h 26m |
| Altitude | 33000 |
| Route | CETK6 ANN VIXOR MARNR8 |
| Aircraft | B738/M-SDE2E3FGHIRWXY/S |
Departure
| Time | 2026-04-16 04:59 |
|---|---|
| Airport | Ketchikan International Airport (PAKT) |
Arrival
| Time | 2026-04-16 06:25 |
|---|---|
| Airport | Seattle–Tacoma International Airport (KSEA) |
| Time | Latitude | Longitude | Altitude | Speed | Heading |
|---|---|---|---|---|---|
| 2026-04-16 04:31 | 55.35661 | -131.71037 | 94 ft | 0 kts | 49° |
| 2026-04-16 04:48 | 55.35661 | -131.71039 | 93 ft | 1 kts | 51° |
| 2026-04-16 04:48 | 55.35650 | -131.71056 | 93 ft | 2 kts | 44° |
| 2026-04-16 04:48 | 55.35640 | -131.71075 | 93 ft | 2 kts | 49° |
| 2026-04-16 04:48 | 55.35632 | -131.71091 | 93 ft | 0 kts | 46° |
| 2026-04-16 04:49 | 55.35622 | -131.71106 | 93 ft | 2 kts | 27° |
| 2026-04-16 04:49 | 55.35608 | -131.71115 | 94 ft | 2 kts | 7° |
| 2026-04-16 04:49 | 55.35593 | -131.71114 | 94 ft | 2 kts | 345° |
| 2026-04-16 04:49 | 55.35579 | -131.71103 | 94 ft | 2 kts | 323° |
| 2026-04-16 04:50 | 55.35574 | -131.71094 | 94 ft | 1 kts | 311° |
| 2026-04-16 04:50 | 55.35571 | -131.71089 | 94 ft | 0 kts | 314° |
| 2026-04-16 04:55 | 55.35582 | -131.71111 | 93 ft | 5 kts | 313° |
| 2026-04-16 04:56 | 55.35617 | -131.71175 | 93 ft | 7 kts | 313° |
| 2026-04-16 04:56 | 55.35660 | -131.71254 | 93 ft | 10 kts | 313° |
| 2026-04-16 04:56 | 55.35716 | -131.71353 | 93 ft | 12 kts | 314° |
| 2026-04-16 04:56 | 55.35781 | -131.71468 | 93 ft | 14 kts | 314° |
| 2026-04-16 04:57 | 55.35856 | -131.71602 | 93 ft | 16 kts | 314° |
| 2026-04-16 04:57 | 55.35938 | -131.71748 | 93 ft | 16 kts | 314° |
| 2026-04-16 04:57 | 55.36016 | -131.71887 | 93 ft | 15 kts | 315° |
| 2026-04-16 04:57 | 55.36088 | -131.72014 | 93 ft | 14 kts | 314° |
| 2026-04-16 04:58 | 55.36154 | -131.72131 | 93 ft | 13 kts | 314° |
| 2026-04-16 04:58 | 55.36183 | -131.72243 | 93 ft | 8 kts | 265° |
| 2026-04-16 04:58 | 55.36160 | -131.72327 | 93 ft | 7 kts | 232° |
| 2026-04-16 04:58 | 55.36109 | -131.72334 | 93 ft | 10 kts | 143° |
| 2026-04-16 04:59 | 55.35954 | -131.72070 | 93 ft | 67 kts | 136° |
| 2026-04-16 04:59 | 55.35440 | -131.71185 | 94 ft | 138 kts | 135° |
| 2026-04-16 04:59 | 55.34631 | -131.69804 | 377 ft | 172 kts | 135° |
| 2026-04-16 04:59 | 55.33805 | -131.68317 | 1244 ft | 174 kts | 133° |
| 2026-04-16 05:00 | 55.32994 | -131.66757 | 2020 ft | 176 kts | 132° |
| 2026-04-16 05:00 | 55.32110 | -131.65219 | 2471 ft | 190 kts | 147° |
| 2026-04-16 05:00 | 55.30790 | -131.64610 | 2832 ft | 209 kts | 187° |
| 2026-04-16 05:00 | 55.29413 | -131.65567 | 3305 ft | 225 kts | 213° |
| 2026-04-16 05:01 | 55.28112 | -131.67229 | 3873 ft | 240 kts | 214° |
| 2026-04-16 05:01 | 55.26505 | -131.68292 | 4427 ft | 256 kts | 182° |
| 2026-04-16 05:01 | 55.24717 | -131.67770 | 4936 ft | 269 kts | 161° |
| 2026-04-16 05:01 | 55.22959 | -131.66609 | 5010 ft | 272 kts | 159° |
| 2026-04-16 05:02 | 55.21211 | -131.65475 | 5001 ft | 269 kts | 161° |
| 2026-04-16 05:02 | 55.19424 | -131.64479 | 4998 ft | 269 kts | 163° |
| 2026-04-16 05:02 | 55.17609 | -131.63567 | 5125 ft | 282 kts | 165° |
| 2026-04-16 05:02 | 55.15746 | -131.62660 | 6232 ft | 274 kts | 165° |
| 2026-04-16 05:03 | 55.13903 | -131.61758 | 7030 ft | 278 kts | 165° |
| 2026-04-16 05:03 | 55.12053 | -131.60846 | 7795 ft | 282 kts | 165° |
| 2026-04-16 05:03 | 55.10158 | -131.59907 | 8620 ft | 285 kts | 165° |
| 2026-04-16 05:04 | 55.06339 | -131.57858 | 10168 ft | 293 kts | 158° |
| 2026-04-16 05:04 | 55.04561 | -131.55992 | 10603 ft | 310 kts | 143° |
| 2026-04-16 05:04 | 55.02877 | -131.53455 | 11038 ft | 325 kts | 138° |
| 2026-04-16 05:04 | 55.01217 | -131.50707 | 11414 ft | 341 kts | 137° |
| 2026-04-16 05:05 | 54.99443 | -131.47786 | 11743 ft | 357 kts | 137° |
| 2026-04-16 05:05 | 54.97592 | -131.44835 | 12065 ft | 373 kts | 138° |
| 2026-04-16 05:05 | 54.95622 | -131.41769 | 12685 ft | 379 kts | 139° |
| 2026-04-16 05:05 | 54.93647 | -131.38734 | 13281 ft | 386 kts | 139° |
| 2026-04-16 05:06 | 54.91637 | -131.35661 | 14002 ft | 388 kts | 139° |
| 2026-04-16 05:06 | 54.89584 | -131.32530 | 14603 ft | 394 kts | 140° |
| 2026-04-16 05:06 | 54.87514 | -131.29376 | 15182 ft | 399 kts | 140° |
| 2026-04-16 05:06 | 54.85410 | -131.26170 | 15749 ft | 405 kts | 139° |
| 2026-04-16 05:07 | 54.83284 | -131.22934 | 16303 ft | 410 kts | 139° |
| 2026-04-16 05:07 | 54.81138 | -131.19673 | 16840 ft | 416 kts | 139° |
| 2026-04-16 05:07 | 54.78961 | -131.16367 | 17450 ft | 419 kts | 139° |
| 2026-04-16 05:07 | 54.76756 | -131.13025 | 17908 ft | 426 kts | 138° |
| 2026-04-16 05:08 | 54.74512 | -131.09631 | 18509 ft | 429 kts | 139° |
| 2026-04-16 05:08 | 54.72277 | -131.06256 | 19021 ft | 433 kts | 138° |
| 2026-04-16 05:08 | 54.69994 | -131.02808 | 19551 ft | 438 kts | 138° |
| 2026-04-16 05:08 | 54.67704 | -130.99353 | 20055 ft | 442 kts | 138° |
| 2026-04-16 05:09 | 54.65365 | -130.95828 | 20509 ft | 449 kts | 139° |
| 2026-04-16 05:09 | 54.63020 | -130.92307 | 21070 ft | 452 kts | 138° |
| 2026-04-16 05:09 | 54.60648 | -130.88750 | 21523 ft | 457 kts | 138° |
| 2026-04-16 05:09 | 54.58215 | -130.85103 | 21993 ft | 461 kts | 138° |
| 2026-04-16 05:10 | 54.55804 | -130.81499 | 22505 ft | 464 kts | 138° |
| 2026-04-16 05:10 | 54.53359 | -130.77849 | 22886 ft | 471 kts | 138° |
| 2026-04-16 05:10 | 54.50873 | -130.74141 | 23424 ft | 473 kts | 138° |
| 2026-04-16 05:10 | 54.48373 | -130.70421 | 23789 ft | 479 kts | 138° |
| 2026-04-16 05:11 | 54.45861 | -130.66690 | 24239 ft | 483 kts | 138° |
| 2026-04-16 05:11 | 54.43313 | -130.62913 | 24696 ft | 486 kts | 137° |
| 2026-04-16 05:11 | 54.40762 | -130.59132 | 25012 ft | 492 kts | 137° |
| 2026-04-16 05:11 | 54.38150 | -130.55269 | 25435 ft | 496 kts | 137° |
| 2026-04-16 05:12 | 54.35554 | -130.51440 | 25960 ft | 497 kts | 137° |
| 2026-04-16 05:12 | 54.32918 | -130.47560 | 26435 ft | 498 kts | 137° |
| 2026-04-16 05:12 | 54.30298 | -130.43715 | 26925 ft | 499 kts | 137° |
| 2026-04-16 05:12 | 54.27679 | -130.39876 | 27284 ft | 503 kts | 136° |
| 2026-04-16 05:13 | 54.25008 | -130.35965 | 27694 ft | 505 kts | 136° |
| 2026-04-16 05:13 | 54.22323 | -130.32044 | 28049 ft | 509 kts | 138° |
| 2026-04-16 05:13 | 54.19626 | -130.28116 | 28423 ft | 512 kts | 138° |
| 2026-04-16 05:13 | 54.16929 | -130.24194 | 28895 ft | 511 kts | 137° |
| 2026-04-16 05:14 | 54.14234 | -130.20277 | 29306 ft | 512 kts | 137° |
| 2026-04-16 05:14 | 54.11520 | -130.16339 | 29755 ft | 512 kts | 137° |
| 2026-04-16 05:14 | 54.08830 | -130.12440 | 30113 ft | 513 kts | 137° |
| 2026-04-16 05:14 | 54.06098 | -130.08485 | 30423 ft | 516 kts | 137° |
| 2026-04-16 05:15 | 54.03343 | -130.04515 | 30684 ft | 519 kts | 136° |
| 2026-04-16 05:15 | 54.00600 | -130.00581 | 31065 ft | 519 kts | 137° |
| 2026-04-16 05:15 | 53.97824 | -129.96623 | 31570 ft | 516 kts | 137° |
| 2026-04-16 05:15 | 53.95100 | -129.92732 | 32044 ft | 512 kts | 136° |
| 2026-04-16 05:16 | 53.92354 | -129.88792 | 32432 ft | 512 kts | 136° |
| 2026-04-16 05:16 | 53.89647 | -129.84901 | 32749 ft | 512 kts | 135° |
| 2026-04-16 05:16 | 53.86958 | -129.81024 | 32991 ft | 514 kts | 136° |
| 2026-04-16 05:16 | 53.84246 | -129.77118 | 33097 ft | 513 kts | 136° |
| 2026-04-16 05:17 | 53.81519 | -129.73215 | 33084 ft | 510 kts | 136° |
| 2026-04-16 05:17 | 53.76100 | -129.65512 | 33112 ft | 508 kts | 136° |
| 2026-04-16 05:18 | 53.70683 | -129.57854 | 33081 ft | 508 kts | 136° |
| 2026-04-16 05:18 | 53.65261 | -129.50223 | 33101 ft | 511 kts | 137° |
| 2026-04-16 05:19 | 53.59838 | -129.42639 | 33079 ft | 506 kts | 136° |
| 2026-04-16 05:19 | 53.54431 | -129.35066 | 33125 ft | 507 kts | 136° |
| 2026-04-16 05:20 | 53.49028 | -129.27531 | 33105 ft | 507 kts | 138° |
| 2026-04-16 05:20 | 53.43572 | -129.19961 | 33113 ft | 507 kts | 137° |
| 2026-04-16 05:21 | 53.38157 | -129.12434 | 33094 ft | 507 kts | 137° |
| 2026-04-16 05:21 | 53.32750 | -129.04897 | 33119 ft | 506 kts | 136° |
| 2026-04-16 05:22 | 53.27386 | -128.97487 | 33117 ft | 503 kts | 137° |
| 2026-04-16 05:22 | 53.21941 | -128.90051 | 33095 ft | 505 kts | 136° |
| 2026-04-16 05:23 | 53.16547 | -128.82672 | 33089 ft | 506 kts | 136° |
| 2026-04-16 05:23 | 53.11123 | -128.75305 | 33084 ft | 503 kts | 137° |
| 2026-04-16 05:24 | 53.05740 | -128.68013 | 33089 ft | 502 kts | 136° |
| 2026-04-16 05:24 | 53.00323 | -128.60651 | 33107 ft | 502 kts | 136° |
| 2026-04-16 05:25 | 52.94922 | -128.53360 | 33083 ft | 502 kts | 137° |
| 2026-04-16 05:25 | 52.89492 | -128.46075 | 33101 ft | 501 kts | 136° |
| 2026-04-16 05:26 | 52.84098 | -128.38844 | 33118 ft | 499 kts | 136° |
| 2026-04-16 05:26 | 52.78655 | -128.31583 | 33114 ft | 503 kts | 137° |
| 2026-04-16 05:27 | 52.73249 | -128.24438 | 33130 ft | 499 kts | 137° |
| 2026-04-16 05:27 | 52.67841 | -128.17270 | 33139 ft | 500 kts | 137° |
| 2026-04-16 05:28 | 52.62402 | -128.10069 | 33138 ft | 500 kts | 138° |
| 2026-04-16 05:28 | 52.57006 | -128.02945 | 33128 ft | 498 kts | 137° |
| 2026-04-16 05:29 | 52.51598 | -127.95827 | 33109 ft | 500 kts | 137° |
| 2026-04-16 05:29 | 52.46175 | -127.88728 | 33125 ft | 498 kts | 137° |
| 2026-04-16 05:30 | 52.40738 | -127.81653 | 33128 ft | 495 kts | 136° |
| 2026-04-16 05:30 | 52.35354 | -127.74590 | 33145 ft | 495 kts | 137° |
| 2026-04-16 05:31 | 52.29978 | -127.67597 | 33110 ft | 496 kts | 137° |
| 2026-04-16 05:31 | 52.24553 | -127.60604 | 33077 ft | 497 kts | 137° |
| 2026-04-16 05:32 | 52.19161 | -127.53672 | 33118 ft | 495 kts | 137° |
| 2026-04-16 05:32 | 52.13712 | -127.46705 | 33076 ft | 497 kts | 136° |
| 2026-04-16 05:33 | 52.08329 | -127.39822 | 33129 ft | 489 kts | 137° |
| 2026-04-16 05:33 | 52.02981 | -127.32998 | 33120 ft | 495 kts | 137° |
| 2026-04-16 05:34 | 51.97558 | -127.26093 | 33160 ft | 493 kts | 137° |
| 2026-04-16 05:34 | 51.92170 | -127.19247 | 33119 ft | 493 kts | 138° |
| 2026-04-16 05:35 | 51.86765 | -127.12408 | 33074 ft | 493 kts | 137° |
| 2026-04-16 05:35 | 51.81351 | -127.05576 | 33031 ft | 490 kts | 137° |
| 2026-04-16 05:36 | 51.75975 | -126.98823 | 33029 ft | 493 kts | 138° |
| 2026-04-16 05:36 | 51.70575 | -126.92062 | 32961 ft | 485 kts | 137° |
| 2026-04-16 05:37 | 51.65232 | -126.85380 | 33060 ft | 492 kts | 137° |
| 2026-04-16 05:37 | 51.59830 | -126.78661 | 33000 ft | 490 kts | 138° |
| 2026-04-16 05:38 | 51.54441 | -126.71989 | 33026 ft | 489 kts | 138° |
| 2026-04-16 05:38 | 51.49054 | -126.65333 | 32984 ft | 488 kts | 137° |
| 2026-04-16 05:39 | 51.43692 | -126.58697 | 33014 ft | 486 kts | 137° |
| 2026-04-16 05:39 | 51.38303 | -126.52071 | 32957 ft | 487 kts | 137° |
| 2026-04-16 05:40 | 51.32939 | -126.45495 | 32948 ft | 487 kts | 137° |
| 2026-04-16 05:40 | 51.27575 | -126.38932 | 32967 ft | 487 kts | 137° |
| 2026-04-16 05:41 | 51.22241 | -126.32432 | 33014 ft | 485 kts | 138° |
| 2026-04-16 05:41 | 51.16849 | -126.25898 | 33017 ft | 484 kts | 138° |
| 2026-04-16 05:42 | 51.11517 | -126.19435 | 33025 ft | 484 kts | 139° |
| 2026-04-16 05:42 | 51.06162 | -126.12962 | 32997 ft | 483 kts | 139° |
| 2026-04-16 05:43 | 51.00813 | -126.06542 | 32992 ft | 483 kts | 138° |
| 2026-04-16 05:43 | 50.95474 | -126.00143 | 32966 ft | 485 kts | 137° |
| 2026-04-16 05:44 | 50.90099 | -125.93706 | 33003 ft | 481 kts | 137° |
| 2026-04-16 05:44 | 50.84739 | -125.87313 | 33016 ft | 483 kts | 138° |
| 2026-04-16 05:45 | 50.79359 | -125.80913 | 33050 ft | 481 kts | 138° |
| 2026-04-16 05:45 | 50.74046 | -125.74605 | 33071 ft | 480 kts | 138° |
| 2026-04-16 05:46 | 50.68674 | -125.68252 | 33090 ft | 482 kts | 138° |
| 2026-04-16 05:46 | 50.63336 | -125.61977 | 33106 ft | 482 kts | 139° |
| 2026-04-16 05:47 | 50.57968 | -125.55662 | 33107 ft | 479 kts | 138° |
| 2026-04-16 05:47 | 50.52610 | -125.49380 | 33128 ft | 480 kts | 138° |
| 2026-04-16 05:48 | 50.47278 | -125.43130 | 33070 ft | 478 kts | 138° |
| 2026-04-16 05:48 | 50.41950 | -125.36919 | 33133 ft | 480 kts | 139° |
| 2026-04-16 05:49 | 50.36577 | -125.30671 | 33018 ft | 479 kts | 140° |
| 2026-04-16 05:49 | 50.31226 | -125.24480 | 33106 ft | 482 kts | 140° |
| 2026-04-16 05:50 | 50.25848 | -125.18276 | 33025 ft | 478 kts | 140° |
| 2026-04-16 05:50 | 50.20514 | -125.12134 | 33060 ft | 479 kts | 140° |
| 2026-04-16 05:51 | 50.15137 | -125.05970 | 33078 ft | 479 kts | 139° |
| 2026-04-16 05:51 | 50.09790 | -124.99837 | 33030 ft | 476 kts | 139° |
| 2026-04-16 05:52 | 50.04457 | -124.93735 | 33027 ft | 479 kts | 139° |
| 2026-04-16 05:52 | 49.99098 | -124.87629 | 33046 ft | 477 kts | 140° |
| 2026-04-16 05:53 | 49.93766 | -124.81578 | 33060 ft | 474 kts | 140° |
| 2026-04-16 05:53 | 49.88448 | -124.75569 | 33066 ft | 477 kts | 140° |
| 2026-04-16 05:54 | 49.83088 | -124.69513 | 33063 ft | 473 kts | 140° |
| 2026-04-16 05:54 | 49.77782 | -124.63540 | 33076 ft | 474 kts | 140° |
| 2026-04-16 05:55 | 49.72465 | -124.57580 | 33058 ft | 472 kts | 140° |
| 2026-04-16 05:55 | 49.67162 | -124.51625 | 33070 ft | 472 kts | 140° |
| 2026-04-16 05:56 | 49.61837 | -124.45670 | 33075 ft | 474 kts | 140° |
| 2026-04-16 05:56 | 49.56525 | -124.39754 | 33067 ft | 471 kts | 140° |
| 2026-04-16 05:57 | 49.51203 | -124.33833 | 33051 ft | 471 kts | 141° |
| 2026-04-16 05:57 | 49.45880 | -124.27937 | 33056 ft | 471 kts | 142° |
| 2026-04-16 05:58 | 49.40565 | -124.22073 | 33057 ft | 471 kts | 142° |
| 2026-04-16 05:58 | 49.35252 | -124.16228 | 33056 ft | 469 kts | 141° |
| 2026-04-16 05:59 | 49.29956 | -124.10411 | 32944 ft | 463 kts | 142° |
| 2026-04-16 05:59 | 49.27362 | -124.07570 | 32764 ft | 455 kts | 141° |
| 2026-04-16 05:59 | 49.24823 | -124.04792 | 32538 ft | 447 kts | 142° |
| 2026-04-16 05:59 | 49.22595 | -124.02358 | 32389 ft | 442 kts | 141° |
| 2026-04-16 06:00 | 49.20073 | -123.99606 | 32153 ft | 444 kts | 141° |
| 2026-04-16 06:00 | 49.17576 | -123.96882 | 31905 ft | 443 kts | 141° |
| 2026-04-16 06:00 | 49.15040 | -123.94122 | 31680 ft | 439 kts | 141° |
| 2026-04-16 06:00 | 49.12579 | -123.91447 | 31500 ft | 437 kts | 141° |
| 2026-04-16 06:01 | 49.10100 | -123.88758 | 31310 ft | 437 kts | 141° |
| 2026-04-16 06:01 | 49.07639 | -123.86086 | 31063 ft | 436 kts | 141° |
| 2026-04-16 06:01 | 49.05171 | -123.83407 | 30877 ft | 433 kts | 141° |
| 2026-04-16 06:01 | 49.02711 | -123.80740 | 30676 ft | 431 kts | 141° |
| 2026-04-16 06:02 | 48.97865 | -123.75497 | 30215 ft | 429 kts | 141° |
| 2026-04-16 06:02 | 48.95429 | -123.72863 | 29855 ft | 430 kts | 141° |
| 2026-04-16 06:02 | 48.93001 | -123.70239 | 29485 ft | 431 kts | 141° |
| 2026-04-16 06:03 | 48.90573 | -123.67622 | 29012 ft | 432 kts | 141° |
| 2026-04-16 06:03 | 48.88102 | -123.64961 | 28570 ft | 432 kts | 141° |
| 2026-04-16 06:03 | 48.85625 | -123.62301 | 28108 ft | 432 kts | 141° |
| 2026-04-16 06:03 | 48.83186 | -123.59686 | 27633 ft | 432 kts | 142° |
| 2026-04-16 06:04 | 48.80726 | -123.57050 | 27177 ft | 431 kts | 142° |
| 2026-04-16 06:04 | 48.78298 | -123.54452 | 26743 ft | 431 kts | 142° |
| 2026-04-16 06:04 | 48.75858 | -123.51845 | 26280 ft | 430 kts | 142° |
| 2026-04-16 06:04 | 48.73397 | -123.49219 | 25829 ft | 429 kts | 143° |
| 2026-04-16 06:05 | 48.70947 | -123.46672 | 25323 ft | 428 kts | 144° |
| 2026-04-16 06:05 | 48.68455 | -123.44259 | 24815 ft | 419 kts | 146° |
| 2026-04-16 06:05 | 48.66047 | -123.42026 | 24359 ft | 404 kts | 147° |
| 2026-04-16 06:05 | 48.63658 | -123.39848 | 23910 ft | 391 kts | 147° |
| 2026-04-16 06:06 | 48.61357 | -123.37752 | 23488 ft | 386 kts | 147° |
| 2026-04-16 06:06 | 48.59074 | -123.35665 | 23075 ft | 380 kts | 147° |
| 2026-04-16 06:06 | 48.56809 | -123.33586 | 22660 ft | 375 kts | 148° |
| 2026-04-16 06:06 | 48.54584 | -123.31536 | 22249 ft | 370 kts | 148° |
| 2026-04-16 06:07 | 48.52423 | -123.29539 | 21839 ft | 365 kts | 148° |
| 2026-04-16 06:07 | 48.50265 | -123.27543 | 21449 ft | 360 kts | 148° |
| 2026-04-16 06:07 | 48.48168 | -123.25600 | 21069 ft | 355 kts | 148° |
| 2026-04-16 06:07 | 48.46064 | -123.23653 | 20686 ft | 351 kts | 147° |
| 2026-04-16 06:08 | 48.44001 | -123.21744 | 20309 ft | 346 kts | 148° |
| 2026-04-16 06:08 | 48.41964 | -123.19861 | 19911 ft | 342 kts | 148° |
| 2026-04-16 06:08 | 48.39957 | -123.18007 | 19542 ft | 337 kts | 148° |
| 2026-04-16 06:08 | 48.37993 | -123.16194 | 19171 ft | 333 kts | 148° |
| 2026-04-16 06:09 | 48.36033 | -123.14385 | 18823 ft | 328 kts | 148° |
| 2026-04-16 06:09 | 48.34096 | -123.12600 | 18453 ft | 324 kts | 148° |
| 2026-04-16 06:09 | 48.32182 | -123.10838 | 18067 ft | 320 kts | 148° |
| 2026-04-16 06:09 | 48.30312 | -123.09119 | 17668 ft | 317 kts | 148° |
| 2026-04-16 06:10 | 48.28450 | -123.07409 | 17321 ft | 314 kts | 148° |
| 2026-04-16 06:10 | 48.26578 | -123.05692 | 16954 ft | 310 kts | 147° |
| 2026-04-16 06:10 | 48.24762 | -123.04029 | 16631 ft | 306 kts | 148° |
| 2026-04-16 06:10 | 48.22960 | -123.02380 | 16267 ft | 303 kts | 147° |
| 2026-04-16 06:11 | 48.21153 | -123.00727 | 15946 ft | 305 kts | 147° |
| 2026-04-16 06:11 | 48.19281 | -122.99014 | 15610 ft | 331 kts | 147° |
| 2026-04-16 06:11 | 48.17273 | -122.97179 | 15199 ft | 340 kts | 147° |
| 2026-04-16 06:11 | 48.15275 | -122.95357 | 14798 ft | 337 kts | 147° |
| 2026-04-16 06:12 | 48.13274 | -122.93535 | 14432 ft | 334 kts | 147° |
| 2026-04-16 06:12 | 48.11315 | -122.91754 | 14066 ft | 332 kts | 147° |
| 2026-04-16 06:12 | 48.09332 | -122.89949 | 13678 ft | 331 kts | 147° |
| 2026-04-16 06:12 | 48.07375 | -122.88171 | 13285 ft | 329 kts | 147° |
| 2026-04-16 06:13 | 48.05426 | -122.86389 | 12909 ft | 328 kts | 145° |
| 2026-04-16 06:13 | 48.03646 | -122.84340 | 12561 ft | 325 kts | 133° |
| 2026-04-16 06:13 | 48.02215 | -122.81734 | 12193 ft | 322 kts | 122° |
| 2026-04-16 06:13 | 48.01028 | -122.78926 | 11809 ft | 318 kts | 118° |
| 2026-04-16 06:14 | 47.99906 | -122.76086 | 11431 ft | 314 kts | 118° |
| 2026-04-16 06:14 | 47.98830 | -122.73307 | 11068 ft | 309 kts | 114° |
| 2026-04-16 06:14 | 47.98016 | -122.70416 | 10801 ft | 300 kts | 108° |
| 2026-04-16 06:14 | 47.97301 | -122.67491 | 10335 ft | 300 kts | 107° |
| 2026-04-16 06:15 | 47.96614 | -122.64596 | 9969 ft | 296 kts | 107° |
| 2026-04-16 06:15 | 47.95936 | -122.61753 | 9775 ft | 287 kts | 107° |
| 2026-04-16 06:15 | 47.95258 | -122.58939 | 9409 ft | 285 kts | 107° |
| 2026-04-16 06:15 | 47.94591 | -122.56172 | 9055 ft | 282 kts | 107° |
| 2026-04-16 06:16 | 47.93933 | -122.53440 | 8728 ft | 278 kts | 107° |
| 2026-04-16 06:16 | 47.93293 | -122.50768 | 8441 ft | 274 kts | 108° |
| 2026-04-16 06:16 | 47.92467 | -122.48202 | 8134 ft | 271 kts | 123° |
| 2026-04-16 06:16 | 47.91116 | -122.46380 | 7983 ft | 263 kts | 153° |
| 2026-04-16 06:17 | 47.89404 | -122.45479 | 7696 ft | 261 kts | 165° |
| 2026-04-16 06:17 | 47.87632 | -122.44822 | 7389 ft | 258 kts | 166° |
| 2026-04-16 06:17 | 47.85911 | -122.44157 | 7111 ft | 256 kts | 165° |
| 2026-04-16 06:17 | 47.84196 | -122.43437 | 6837 ft | 254 kts | 163° |
| 2026-04-16 06:18 | 47.82499 | -122.42692 | 6523 ft | 251 kts | 163° |
| 2026-04-16 06:18 | 47.80833 | -122.41952 | 6253 ft | 249 kts | 163° |
| 2026-04-16 06:18 | 47.79211 | -122.41232 | 6099 ft | 243 kts | 163° |
| 2026-04-16 06:18 | 47.77569 | -122.40502 | 6042 ft | 243 kts | 162° |
| 2026-04-16 06:19 | 47.76023 | -122.39619 | 5939 ft | 235 kts | 155° |
| 2026-04-16 06:19 | 47.74558 | -122.38589 | 5638 ft | 233 kts | 153° |
| 2026-04-16 06:19 | 47.73106 | -122.37524 | 5373 ft | 230 kts | 153° |
| 2026-04-16 06:19 | 47.71685 | -122.36492 | 5134 ft | 226 kts | 154° |
| 2026-04-16 06:20 | 47.70280 | -122.35487 | 4895 ft | 222 kts | 154° |
| 2026-04-16 06:20 | 47.68899 | -122.34506 | 4661 ft | 218 kts | 155° |
| 2026-04-16 06:20 | 47.67532 | -122.33536 | 4433 ft | 214 kts | 155° |
| 2026-04-16 06:20 | 47.66211 | -122.32600 | 4217 ft | 209 kts | 155° |
| 2026-04-16 06:21 | 47.64893 | -122.31746 | 4014 ft | 200 kts | 164° |
| 2026-04-16 06:21 | 47.63561 | -122.31554 | 3763 ft | 193 kts | 190° |
| 2026-04-16 06:21 | 47.62249 | -122.31770 | 3486 ft | 185 kts | 184° |
| 2026-04-16 06:21 | 47.60991 | -122.31754 | 3246 ft | 176 kts | 182° |
| 2026-04-16 06:22 | 47.59762 | -122.31818 | 3065 ft | 179 kts | 184° |
| 2026-04-16 06:22 | 47.58532 | -122.31862 | 2786 ft | 177 kts | 181° |
| 2026-04-16 06:22 | 47.57297 | -122.31834 | 2596 ft | 175 kts | 178° |
| 2026-04-16 06:22 | 47.56090 | -122.31767 | 2434 ft | 178 kts | 179° |
| 2026-04-16 06:23 | 47.54868 | -122.31748 | 2112 ft | 173 kts | 180° |
| 2026-04-16 06:23 | 47.53679 | -122.31744 | 1885 ft | 162 kts | 180° |
| 2026-04-16 06:23 | 47.52599 | -122.31746 | 1674 ft | 153 kts | 180° |
| 2026-04-16 06:23 | 47.51569 | -122.31750 | 1455 ft | 145 kts | 180° |
| 2026-04-16 06:24 | 47.50545 | -122.31757 | 1256 ft | 146 kts | 180° |
| 2026-04-16 06:24 | 47.49537 | -122.31767 | 1032 ft | 145 kts | 180° |
| 2026-04-16 06:24 | 47.48529 | -122.31747 | 804 ft | 145 kts | 180° |
| 2026-04-16 06:24 | 47.47522 | -122.31774 | 602 ft | 144 kts | 180° |
| 2026-04-16 06:25 | 47.46527 | -122.31785 | 437 ft | 144 kts | 180° |
| 2026-04-16 06:25 | 47.45583 | -122.31792 | 374 ft | 113 kts | 182° |
| 2026-04-16 06:25 | 47.44964 | -122.31798 | 390 ft | 69 kts | 180° |
| 2026-04-16 06:25 | 47.44599 | -122.31800 | 383 ft | 40 kts | 179° |
| 2026-04-16 06:26 | 47.44347 | -122.31770 | 374 ft | 25 kts | 159° |
| 2026-04-16 06:26 | 47.44223 | -122.31677 | 372 ft | 12 kts | 150° |
| 2026-04-16 06:26 | 47.44149 | -122.31615 | 371 ft | 12 kts | 150° |
| 2026-04-16 06:26 | 47.44077 | -122.31555 | 371 ft | 11 kts | 150° |
| 2026-04-16 06:27 | 47.43993 | -122.31484 | 371 ft | 17 kts | 150° |
| 2026-04-16 06:27 | 47.43881 | -122.31388 | 369 ft | 20 kts | 150° |
| 2026-04-16 06:27 | 47.43821 | -122.31239 | 370 ft | 10 kts | 82° |
| 2026-04-16 06:27 | 47.43811 | -122.31155 | 371 ft | 9 kts | 95° |
| 2026-04-16 06:28 | 47.43808 | -122.31026 | 372 ft | 15 kts | 91° |
| 2026-04-16 06:28 | 47.43807 | -122.30856 | 374 ft | 16 kts | 91° |
| 2026-04-16 06:28 | 47.43813 | -122.30682 | 375 ft | 17 kts | 64° |
| 2026-04-16 06:28 | 47.43917 | -122.30638 | 380 ft | 15 kts | 360° |
| 2026-04-16 06:29 | 47.44025 | -122.30639 | 384 ft | 15 kts | 0° |
| 2026-04-16 06:29 | 47.44129 | -122.30637 | 387 ft | 15 kts | 1° |
| 2026-04-16 06:29 | 47.44233 | -122.30634 | 392 ft | 14 kts | 2° |
| 2026-04-16 06:29 | 47.44334 | -122.30629 | 396 ft | 14 kts | 1° |
| 2026-04-16 06:30 | 47.44439 | -122.30629 | 398 ft | 15 kts | 0° |
| 2026-04-16 06:30 | 47.44543 | -122.30628 | 403 ft | 14 kts | 1° |
| 2026-04-16 06:30 | 47.44648 | -122.30627 | 407 ft | 14 kts | 1° |
| 2026-04-16 06:30 | 47.44747 | -122.30624 | 411 ft | 12 kts | 6° |
| 2026-04-16 06:31 | 47.44786 | -122.30551 | 413 ft | 8 kts | 88° |
| 2026-04-16 06:31 | 47.44781 | -122.30463 | 413 ft | 8 kts | 102° |
| 2026-04-16 06:31 | 47.44751 | -122.30381 | 411 ft | 9 kts | 127° |
| 2026-04-16 06:31 | 47.44704 | -122.30290 | 407 ft | 12 kts | 128° |
| 2026-04-16 06:32 | 47.44644 | -122.30199 | 405 ft | 7 kts | 142° |
| 2026-04-16 06:32 | 47.44613 | -122.30164 | 404 ft | 6 kts | 139° |
| 2026-04-16 06:32 | 47.44587 | -122.30128 | 402 ft | 3 kts | 136° |
| 2026-04-16 06:32 | 47.44581 | -122.30119 | 402 ft | 0 kts | 136° |